createdAt,value
2018-06-22T00:00:56.025Z,93420.94
2018-06-22T00:03:24.069Z,93425.69
2018-06-22T00:05:52.072Z,93424.16
2018-06-22T00:08:20.062Z,93418.94
2018-06-22T00:10:48.139Z,93416.07
2018-06-22T00:13:16.140Z,93405.88
2018-06-22T00:15:44.140Z,93400.66
2018-06-22T00:18:12.137Z,93395.66
2018-06-22T00:20:40.092Z,93393.42
2018-06-22T00:23:08.177Z,93394.13
2018-06-22T00:25:36.231Z,93401.37
2018-06-22T00:28:04.252Z,93394.36
2018-06-22T00:30:32.277Z,93388.66
2018-06-22T00:33:00.275Z,93376.45
2018-06-22T00:35:28.305Z,93373.47
2018-06-22T00:37:56.327Z,93378.69
2018-06-22T00:40:24.286Z,93376.80
2018-06-22T00:42:52.279Z,93376.30
2018-06-22T00:45:20.259Z,93380.58
2018-06-22T00:47:48.319Z,93384.75
2018-06-22T00:50:16.257Z,93382.52
2018-06-22T00:52:44.286Z,93380.73
2018-06-22T00:55:12.294Z,93371.09
2018-06-22T00:57:40.404Z,93373.70
2018-06-22T01:00:08.445Z,93373.97
2018-06-22T01:02:36.441Z,93372.55
2018-06-22T01:05:04.538Z,93377.89
2018-06-22T01:07:32.553Z,93373.86
2018-06-22T01:10:00.680Z,93374.45
2018-06-22T01:12:28.633Z,93367.33
2018-06-22T01:14:56.607Z,93372.55
2018-06-22T01:17:24.576Z,93375.39
2018-06-22T01:19:52.571Z,93377.90
2018-06-22T01:22:20.614Z,93379.21
2018-06-22T01:24:48.628Z,93376.94
2018-06-22T01:27:16.665Z,93380.30
2018-06-22T01:29:44.749Z,93376.72
2018-06-22T01:32:12.826Z,93377.08
2018-06-22T01:34:40.865Z,93371.00
2018-06-22T01:37:08.959Z,93372.20
2018-06-22T01:39:36.922Z,93371.86
2018-06-22T01:42:04.980Z,93371.75
2018-06-22T01:44:33.051Z,93366.38
2018-06-22T01:47:01.010Z,93366.27
2018-06-22T01:49:29.029Z,93374.92
2018-06-22T01:51:57.029Z,93373.48
2018-06-22T01:54:25.098Z,93380.30
2018-06-22T01:56:53.093Z,93377.31
2018-06-22T01:59:21.117Z,93385.52
2018-06-22T02:01:49.130Z,93373.62
2018-06-22T02:04:17.117Z,93375.29
2018-06-22T02:06:45.132Z,93381.93
2018-06-22T02:09:13.525Z,93377.30
2018-06-22T02:11:41.550Z,93379.32
2018-06-22T02:14:09.625Z,93382.01
2018-06-22T02:16:37.943Z,93380.47
2018-06-22T02:19:05.953Z,93381.55
2018-06-22T02:21:33.973Z,93387.47
2018-06-22T02:24:01.987Z,93376.32
2018-06-22T02:26:30.080Z,93377.97
2018-06-22T02:28:58.147Z,93385.80
2018-06-22T02:31:26.129Z,93396.02
2018-06-22T02:33:54.164Z,93393.41
2018-06-22T02:36:22.204Z,93391.27
2018-06-22T02:38:50.171Z,93398.85
2018-06-22T02:41:18.315Z,93408.59
2018-06-22T02:43:46.509Z,93402.16
2018-06-22T02:46:14.531Z,93401.46
2018-06-22T02:48:42.610Z,93401.25
2018-06-22T02:51:10.688Z,93407.08
2018-06-22T02:53:38.778Z,93403.50
2018-06-22T02:56:06.857Z,93403.87
2018-06-22T02:58:34.830Z,93402.48
2018-06-22T03:01:02.909Z,93408.13
2018-06-22T03:03:31.108Z,93407.71
2018-06-22T03:05:59.132Z,93411.64
2018-06-22T03:08:27.169Z,93412.80
2018-06-22T03:10:55.171Z,93411.87
2018-06-22T03:13:23.237Z,93414.70
2018-06-22T03:15:51.324Z,93410.94
2018-06-22T03:18:19.380Z,93399.17
2018-06-22T03:20:47.464Z,93397.22
2018-06-22T03:23:15.516Z,93404.73
2018-06-22T03:25:43.585Z,93411.05
2018-06-22T03:28:11.570Z,93405.41
2018-06-22T03:30:39.665Z,93408.97
2018-06-22T03:33:08.003Z,93419.48
2018-06-22T03:35:35.976Z,93415.88
2018-06-22T03:38:04.018Z,93417.34
2018-06-22T03:40:32.050Z,93425.09
2018-06-22T03:43:00.060Z,93419.62
2018-06-22T03:45:28.165Z,93419.64
2018-06-22T03:47:56.254Z,93426.06
2018-06-22T03:50:24.332Z,93423.45
2018-06-22T03:52:52.484Z,93420.88
2018-06-22T03:55:20.446Z,93425.27
2018-06-22T03:57:48.757Z,93420.93
2018-06-22T04:00:16.840Z,93419.89
2018-06-22T04:02:44.906Z,93427.31
2018-06-22T04:05:12.974Z,93425.20
2018-06-22T04:07:41.032Z,93429.83
2018-06-22T04:10:09.225Z,93427.89
2018-06-22T04:12:37.363Z,93428.98
2018-06-22T04:15:05.478Z,93421.36
2018-06-22T04:17:37.961Z,93423.40
2018-06-22T04:20:05.952Z,93420.27
2018-06-22T04:22:34.084Z,93414.36
2018-06-22T04:25:02.333Z,93412.56
2018-06-22T04:27:30.393Z,93410.02
2018-06-22T04:29:58.436Z,93406.61
2018-06-22T04:32:26.458Z,93399.79
2018-06-22T04:34:54.515Z,93409.72
2018-06-22T04:37:22.678Z,93402.05
2018-06-22T04:39:50.807Z,93401.12
2018-06-22T04:42:18.854Z,93400.17
2018-06-22T04:44:46.931Z,93399.25
2018-06-22T04:47:15.020Z,93406.56
2018-06-22T04:49:43.031Z,93403.94
2018-06-22T04:52:11.082Z,93412.66
2018-06-22T04:54:39.519Z,93402.43
2018-06-22T04:57:07.872Z,93405.22
2018-06-22T04:59:36.144Z,93406.80
2018-06-22T05:02:04.961Z,93401.66
2018-06-22T05:04:34.293Z,93395.92
2018-06-22T05:07:03.937Z,93399.13
2018-06-22T05:09:32.751Z,93394.75
2018-06-22T05:12:01.125Z,93391.65
2018-06-22T05:14:29.417Z,93388.07
2018-06-22T05:16:57.795Z,93385.84
2018-06-22T05:19:26.273Z,93382.40
2018-06-22T05:21:54.758Z,93382.05
2018-06-22T05:24:22.999Z,93377.35
2018-06-22T05:26:51.608Z,93376.91
2018-06-22T05:29:20.544Z,93380.73
2018-06-22T05:31:49.120Z,93378.98
2018-06-22T05:34:17.608Z,93374.00
2018-06-22T05:36:45.849Z,93362.94
2018-06-22T05:39:14.141Z,93370.39
2018-06-22T05:41:42.786Z,93368.86
2018-06-22T05:44:11.153Z,93370.19
2018-06-22T05:46:39.873Z,93365.25
2018-06-22T05:49:08.747Z,93362.75
2018-06-22T05:51:37.633Z,93363.58
2018-06-22T05:54:06.713Z,93358.02
2018-06-22T05:56:35.539Z,93364.25
2018-06-22T05:59:03.754Z,93358.80
2018-06-22T06:01:32.048Z,93365.53
2018-06-22T06:04:00.698Z,93367.44
2018-06-22T06:06:29.346Z,93370.42
2018-06-22T06:08:57.711Z,93364.55
2018-06-22T06:11:26.231Z,93359.58
2018-06-22T06:13:54.604Z,93358.95
2018-06-22T06:16:22.960Z,93357.98
2018-06-22T06:18:52.061Z,93355.61
2018-06-22T06:21:20.653Z,93359.39
2018-06-22T06:23:49.074Z,93346.87
2018-06-22T06:26:17.656Z,93344.21
2018-06-22T06:28:45.865Z,93346.13
2018-06-22T06:31:14.075Z,93338.39
2018-06-22T06:33:42.582Z,93343.23
2018-06-22T06:36:10.997Z,93334.26
2018-06-22T06:38:39.477Z,93336.73
2018-06-22T06:41:07.891Z,93338.55
2018-06-22T06:43:36.356Z,93341.92
2018-06-22T06:46:05.088Z,93341.13
2018-06-22T06:48:33.420Z,93341.94
2018-06-22T06:51:01.700Z,93335.22
2018-06-22T06:53:29.914Z,93337.53
2018-06-22T06:55:58.233Z,93337.14
2018-06-22T06:58:26.819Z,93333.72
2018-06-22T07:00:55.480Z,93331.97
2018-06-22T07:03:23.739Z,93329.50
2018-06-22T07:05:51.900Z,93330.33
2018-06-22T07:08:20.802Z,93331.70
2018-06-22T07:10:49.681Z,93331.00
2018-06-22T07:13:18.109Z,93328.14
2018-06-22T07:15:46.367Z,93332.16
2018-06-22T07:18:14.549Z,93329.39
2018-06-22T07:20:42.813Z,93321.88
2018-06-22T07:23:11.001Z,93323.85
2018-06-22T07:25:39.324Z,93314.50
2018-06-22T07:28:07.853Z,93318.48
2018-06-22T07:30:36.384Z,93315.62
2018-06-22T07:33:05.213Z,93313.95
2018-06-22T07:35:34.136Z,93310.22
2018-06-22T07:38:02.285Z,93314.13
2018-06-22T07:40:30.508Z,93312.80
2018-06-22T07:42:58.765Z,93321.39
2018-06-22T07:45:27.066Z,93312.34
2018-06-22T07:47:55.449Z,93313.11
2018-06-22T07:50:24.047Z,93314.47
2018-06-22T07:52:52.331Z,93307.80
2018-06-22T07:55:20.786Z,93302.94
2018-06-22T07:57:49.251Z,93304.34
2018-06-22T08:00:17.902Z,93292.05
2018-06-22T08:02:46.244Z,93289.73
2018-06-22T08:05:18.104Z,93293.75
2018-06-22T08:07:47.022Z,93286.03
2018-06-22T08:10:15.746Z,93290.19
2018-06-22T08:12:44.649Z,93284.02
2018-06-22T08:15:13.177Z,93281.44
2018-06-22T08:17:41.871Z,93285.94
2018-06-22T08:20:10.552Z,93282.98
2018-06-22T08:22:39.198Z,93275.32
2018-06-22T08:25:07.904Z,93270.03
2018-06-22T08:27:36.491Z,93281.58
2018-06-22T08:30:05.582Z,93278.74
2018-06-22T08:32:34.242Z,93279.45
2018-06-22T08:35:02.644Z,93277.84
2018-06-22T08:37:30.953Z,93270.14
2018-06-22T08:39:59.527Z,93272.38
2018-06-22T08:42:28.466Z,93267.94
2018-06-22T08:44:56.938Z,93266.32
2018-06-22T08:47:25.609Z,93260.56
2018-06-22T08:49:54.104Z,93266.25
2018-06-22T08:52:22.844Z,93262.72
2018-06-22T08:54:51.537Z,93257.09
2018-06-22T08:57:19.976Z,93261.78
2018-06-22T08:59:48.489Z,93255.48
2018-06-22T09:02:16.810Z,93252.09
2018-06-22T09:04:45.188Z,93243.73
2018-06-22T09:07:13.888Z,93241.41
2018-06-22T09:09:42.418Z,93244.30
2018-06-22T09:12:10.837Z,93244.75
2018-06-22T09:14:39.216Z,93238.22
2018-06-22T09:17:07.715Z,93234.02
2018-06-22T09:19:36.176Z,93228.42
2018-06-22T09:22:05.990Z,93224.08
2018-06-22T09:24:34.578Z,93222.26
2018-06-22T09:27:02.939Z,93222.86
2018-06-22T09:29:32.045Z,93222.65
2018-06-22T09:32:00.355Z,93212.97
2018-06-22T09:34:28.460Z,93216.02
2018-06-22T09:36:56.705Z,93218.64
2018-06-22T09:39:24.991Z,93216.77
2018-06-22T09:41:53.362Z,93207.61
2018-06-22T09:44:31.880Z,93209.91
2018-06-22T09:47:00.056Z,93202.44
2018-06-22T09:49:28.547Z,93188.30
2018-06-22T09:51:57.361Z,93184.48
2018-06-22T09:54:26.244Z,93178.27
2018-06-22T09:56:54.502Z,93174.82
2018-06-22T09:59:23.490Z,93176.55
2018-06-22T10:01:52.682Z,93168.47
2018-06-22T10:04:22.019Z,93175.84
2018-06-22T10:06:51.121Z,93173.36
2018-06-22T10:09:19.434Z,93169.84
2018-06-22T10:11:47.993Z,93171.20
2018-06-22T10:14:16.518Z,93164.11
2018-06-22T10:16:45.014Z,93157.68
2018-06-22T10:19:13.556Z,93160.61
2018-06-22T10:21:41.809Z,93161.51
2018-06-22T10:24:10.299Z,93163.31
2018-06-22T10:26:38.475Z,93158.19
2018-06-22T10:29:06.894Z,93157.85
2018-06-22T10:31:35.514Z,93150.64
2018-06-22T10:34:04.182Z,93150.02
2018-06-22T10:36:32.317Z,93146.40
2018-06-22T10:39:00.525Z,93149.73
2018-06-22T10:41:29.229Z,93146.12
2018-06-22T10:43:57.546Z,93145.27
2018-06-22T10:46:25.979Z,93145.33
2018-06-22T10:48:54.370Z,93139.36
2018-06-22T10:51:22.696Z,93128.80
2018-06-22T10:53:51.202Z,93127.45
2018-06-22T10:56:19.684Z,93127.67
2018-06-22T10:58:48.318Z,93130.78
2018-06-22T11:01:16.584Z,93133.72
2018-06-22T11:03:44.903Z,93125.59
2018-06-22T11:06:13.281Z,93132.26
2018-06-22T11:08:41.704Z,93140.08
2018-06-22T11:11:10.138Z,93143.66
2018-06-22T11:13:38.556Z,93136.84
2018-06-22T11:16:07.123Z,93144.67
2018-06-22T11:18:35.442Z,93143.95
2018-06-22T11:21:04.063Z,93137.16
2018-06-22T11:23:32.572Z,93138.48
2018-06-22T11:26:01.103Z,93136.89
2018-06-22T11:28:29.629Z,93129.94
2018-06-22T11:30:58.174Z,93126.74
2018-06-22T11:33:26.682Z,93138.32
2018-06-22T11:35:54.839Z,93142.20
2018-06-22T11:41:02.488Z,93140.51
2018-06-22T11:43:30.927Z,93134.14
2018-06-22T11:45:59.218Z,93135.91
2018-06-22T11:48:27.386Z,93133.94
2018-06-22T11:50:55.846Z,93132.30
2018-06-22T11:53:24.304Z,93145.03
2018-06-22T11:55:52.595Z,93154.95
2018-06-22T11:58:21.031Z,93142.44
2018-06-22T12:00:49.749Z,93142.23
2018-06-22T12:03:18.238Z,93146.35
2018-06-22T12:05:46.369Z,93143.33
2018-06-22T12:08:14.610Z,93145.39
2018-06-22T12:10:42.882Z,93142.20
2018-06-22T12:13:11.240Z,93136.13
2018-06-22T12:15:40.150Z,93125.02
2018-06-22T12:18:08.343Z,93125.02
2018-06-22T12:20:36.776Z,93122.93
2018-06-22T12:23:05.064Z,93116.02
2018-06-22T12:25:33.506Z,93100.86
2018-06-22T12:28:01.999Z,93109.00
2018-06-22T12:30:30.481Z,93099.48
2018-06-22T12:32:59.005Z,93102.80
2018-06-22T12:35:27.333Z,93097.89
2018-06-22T12:37:57.039Z,93092.45
2018-06-22T12:40:25.380Z,93090.81
2018-06-22T12:45:50.950Z,93096.14
2018-06-22T12:48:20.166Z,93106.47
2018-06-22T12:50:48.706Z,93114.56
2018-06-22T12:53:17.074Z,93112.70
2018-06-22T12:55:45.274Z,93103.72
2018-06-22T12:58:13.672Z,93108.76
2018-06-22T13:00:42.153Z,93111.24
2018-06-22T13:03:10.497Z,93100.36
2018-06-22T13:05:38.697Z,93096.16
2018-06-22T13:08:07.133Z,93096.33
2018-06-22T13:10:35.271Z,93094.91
2018-06-22T13:13:03.464Z,93103.81
2018-06-22T13:15:31.958Z,93104.48
2018-06-22T13:18:00.153Z,93112.75
2018-06-22T13:20:28.574Z,93109.05
2018-06-22T13:22:57.304Z,93111.77
2018-06-22T13:25:25.894Z,93117.55
2018-06-22T13:27:54.160Z,93119.11
2018-06-22T13:30:22.949Z,93113.92
2018-06-22T13:32:51.287Z,93113.91
2018-06-22T13:35:19.549Z,93104.26
2018-06-22T13:37:48.069Z,93087.41
2018-06-22T13:40:16.636Z,93096.42
2018-06-22T13:42:44.980Z,93087.31
2018-06-22T13:45:13.301Z,93082.89
2018-06-22T13:47:42.232Z,93082.91
2018-06-22T13:50:10.566Z,93091.88
2018-06-22T13:52:41.841Z,93092.98
2018-06-22T13:55:10.791Z,93095.92
2018-06-22T13:57:39.656Z,93092.27
2018-06-22T14:00:08.623Z,93090.95
2018-06-22T14:02:37.066Z,93088.82
2018-06-22T14:05:11.516Z,93084.30
2018-06-22T14:07:39.855Z,93084.80
2018-06-22T14:10:08.439Z,93084.43
2018-06-22T14:12:36.787Z,93081.00
2018-06-22T14:15:05.294Z,93090.05
2018-06-22T14:17:33.624Z,93093.00
2018-06-22T14:20:02.412Z,93095.61
2018-06-22T14:22:30.813Z,93096.72
2018-06-22T14:24:59.252Z,93095.41
2018-06-22T14:27:27.344Z,93100.44
2018-06-22T14:29:55.562Z,93095.61
2018-06-22T14:32:24.012Z,93089.86
2018-06-22T14:34:52.673Z,93088.48
2018-06-22T14:37:20.937Z,93089.32
2018-06-22T14:39:49.204Z,93082.89
2018-06-22T14:42:17.446Z,93083.52
2018-06-22T14:44:46.395Z,93085.99
2018-06-22T14:47:14.819Z,93077.23
2018-06-22T14:49:43.031Z,93078.14
2018-06-22T14:52:11.413Z,93069.77
2018-06-22T14:54:45.336Z,93065.20
2018-06-22T14:57:20.308Z,93063.41
2018-06-22T14:59:54.129Z,93063.36
2018-06-22T15:02:28.457Z,93067.16
2018-06-22T15:05:02.552Z,93073.59
2018-06-22T15:07:36.370Z,93072.66
2018-06-22T15:10:04.560Z,93086.35
2018-06-22T15:12:32.815Z,93092.24
2018-06-22T15:15:01.241Z,93104.02
2018-06-22T15:17:33.914Z,93118.87
2018-06-22T15:20:02.269Z,93140.45
2018-06-22T15:22:30.573Z,93148.91
2018-06-22T15:24:58.894Z,93169.41
2018-06-22T15:27:27.064Z,93189.58
2018-06-22T15:29:55.480Z,93202.52
2018-06-22T15:32:23.776Z,93204.37
2018-06-22T20:34:49.086Z,93331.32
2018-06-22T20:37:23.023Z,93335.86
2018-06-22T20:39:56.955Z,93339.17
2018-06-22T20:42:30.546Z,93343.80
2018-06-22T20:45:04.622Z,93342.98
2018-06-22T20:47:38.670Z,93340.65
2018-06-22T20:50:12.337Z,93341.34
2018-06-22T20:52:40.469Z,93347.44
2018-06-22T20:55:08.842Z,93347.16
2018-06-22T20:57:37.106Z,93350.96
2018-06-22T21:00:08.878Z,93347.39
2018-06-22T21:02:38.200Z,93341.25
2018-06-22T21:05:06.411Z,93342.88
2018-06-22T21:07:34.763Z,93345.66
2018-06-22T21:10:03.191Z,93350.64
2018-06-22T21:12:40.411Z,93349.94
2018-06-22T21:14:59.643Z,93356.09
2018-06-22T21:17:27.826Z,93357.97
2018-06-22T21:19:56.095Z,93358.56
2018-06-22T21:22:24.151Z,93357.88
2018-06-22T21:24:52.509Z,93366.12
2018-06-22T21:28:31.041Z,93373.73
2018-06-22T21:31:04.538Z,93372.41
2018-06-22T21:33:38.301Z,93374.45
2018-06-22T21:36:12.374Z,93376.54
2018-06-22T21:38:46.075Z,93389.19
2018-06-22T21:41:14.246Z,93389.46
2018-06-22T21:43:42.432Z,93392.69
2018-06-22T21:46:10.454Z,93389.56
2018-06-22T21:48:38.762Z,93399.47
2018-06-22T21:51:07.018Z,93403.02
2018-06-22T21:53:35.349Z,93408.97
2018-06-22T21:56:03.808Z,93407.27
2018-06-22T21:58:32.116Z,93400.16
2018-06-22T22:01:00.205Z,93407.52
2018-06-22T22:03:28.269Z,93411.33
2018-06-22T22:05:56.737Z,93405.27
2018-06-22T22:08:25.206Z,93408.61
2018-06-22T22:10:59.197Z,93417.77
2018-06-22T22:13:27.355Z,93420.61
2018-06-22T22:15:55.415Z,93418.21
2018-06-22T22:18:23.531Z,93420.14
2018-06-22T22:20:51.634Z,93421.70
2018-06-22T22:23:19.797Z,93429.55
2018-06-22T22:25:48.539Z,93432.28
2018-06-22T22:28:16.909Z,93432.77
2018-06-22T22:30:45.126Z,93431.58
2018-06-22T22:33:13.404Z,93439.41
2018-06-22T22:35:41.659Z,93451.17
2018-06-22T22:38:09.850Z,93451.05
2018-06-22T22:40:37.984Z,93457.09
2018-06-22T22:43:06.615Z,93466.92
2018-06-22T22:45:34.670Z,93463.36
2018-06-22T22:48:02.949Z,93458.69
2018-06-22T22:50:31.098Z,93454.29
2018-06-22T22:52:59.202Z,93454.14
2018-06-22T22:55:27.378Z,93459.47
2018-06-22T22:57:55.601Z,93453.77
2018-06-22T23:00:24.077Z,93457.47
2018-06-22T23:02:52.205Z,93462.78
2018-06-22T23:05:20.283Z,93468.59
2018-06-22T23:07:48.356Z,93470.94
2018-06-22T23:10:16.592Z,93475.57
2018-06-22T23:12:44.704Z,93477.37
2018-06-22T23:15:12.942Z,93488.84
2018-06-22T23:17:41.698Z,93493.34
2018-06-22T23:20:09.829Z,93498.66
2018-06-22T23:22:48.818Z,93493.34
2018-06-22T23:25:16.996Z,93493.31
2018-06-22T23:27:45.079Z,93481.42
2018-06-22T23:30:13.229Z,93478.76
2018-06-22T23:32:41.381Z,93479.16
2018-06-22T23:35:09.456Z,93485.58
2018-06-22T23:37:37.556Z,93489.75
2018-06-22T23:40:09.511Z,93490.80
2018-06-22T23:42:37.865Z,93490.90
2018-06-22T23:45:05.983Z,93496.83
2018-06-22T23:47:34.124Z,93496.50
2018-06-22T23:50:03.347Z,93499.80
2018-06-22T23:52:31.560Z,93510.44
2018-06-22T23:54:59.779Z,93518.02
2018-06-22T23:57:27.930Z,93518.23
2018-06-22T23:59:56.202Z,93522.28
